createdAt,value
2023-03-16T00:00:13.931Z,-4.70
2023-03-16T00:02:44.160Z,-4.80
2023-03-16T00:05:15.636Z,-4.60
2023-03-16T00:07:45.689Z,-4.60
2023-03-16T00:10:18.328Z,-4.70
2023-03-16T00:12:48.165Z,-4.60
2023-03-16T00:15:18.192Z,-4.80
2023-03-16T00:17:49.017Z,-4.90
2023-03-16T00:20:20.036Z,-5.10
2023-03-16T00:22:49.918Z,-4.80
2023-03-16T00:25:24.430Z,-4.90
2023-03-16T00:27:54.344Z,-4.90
2023-03-16T00:30:24.264Z,-4.90
2023-03-16T00:32:55.654Z,-5.00
2023-03-16T00:35:25.898Z,-4.60
2023-03-16T00:37:57.403Z,-4.60
2023-03-16T00:40:31.166Z,-5.00
2023-03-16T00:43:01.827Z,-5.30
2023-03-16T00:45:32.699Z,-4.80
2023-03-16T00:48:03.155Z,-5.30
2023-03-16T00:50:33.554Z,-5.10
2023-03-16T00:53:03.419Z,-5.00
2023-03-16T00:55:36.703Z,-5.20
2023-03-16T00:58:07.148Z,-5.30
2023-03-16T01:00:37.083Z,-5.00
2023-03-16T01:03:06.960Z,-5.30
2023-03-16T01:05:36.934Z,-5.00
2023-03-16T01:08:07.551Z,-5.00
2023-03-16T01:10:45.308Z,-4.80
2023-03-16T01:13:15.149Z,-5.10
2023-03-16T01:15:46.096Z,-5.30
2023-03-16T01:18:16.176Z,-4.90
2023-03-16T01:20:51.033Z,-5.30
2023-03-16T01:23:21.084Z,-5.00
2023-03-16T01:25:55.889Z,-5.30
2023-03-16T01:28:27.577Z,-5.50
2023-03-16T01:31:02.377Z,-5.50
2023-03-16T01:33:33.695Z,-5.30
2023-03-16T01:36:06.978Z,-5.20
2023-03-16T01:38:49.831Z,-5.20
2023-03-16T01:41:23.673Z,-5.00
2023-03-16T01:43:58.288Z,-5.20
2023-03-16T01:46:31.660Z,-5.30
2023-03-16T01:49:10.718Z,-5.50
2023-03-16T01:51:45.760Z,-5.30
2023-03-16T01:54:21.925Z,-5.50
2023-03-16T01:57:01.471Z,-5.40
2023-03-16T01:59:36.074Z,-5.40
2023-03-16T02:02:06.224Z,-5.30
2023-03-16T02:04:45.493Z,-5.20
2023-03-16T02:07:20.232Z,-5.30
2023-03-16T02:09:52.790Z,-5.00
2023-03-16T02:12:25.472Z,-5.30
2023-03-16T02:14:58.261Z,-5.00
2023-03-16T02:17:31.884Z,-5.30
2023-03-16T02:20:19.888Z,-5.10
2023-03-16T02:22:54.141Z,-5.50
2023-03-16T02:25:27.423Z,-5.40
2023-03-16T02:28:07.053Z,-5.30
2023-03-16T02:30:44.573Z,-5.00
2023-03-16T02:33:16.092Z,-5.40
2023-03-16T02:35:47.438Z,-5.20
2023-03-16T02:38:17.383Z,-5.40
2023-03-16T02:41:02.161Z,-5.20
2023-03-16T02:43:37.056Z,-5.30
2023-03-16T02:46:36.622Z,-5.20
2023-03-16T02:49:11.178Z,-5.30
2023-03-16T02:51:42.671Z,-5.20
2023-03-16T02:54:12.894Z,-5.20
2023-03-16T02:56:44.238Z,-5.30
2023-03-16T02:59:15.803Z,-5.30
2023-03-16T03:01:49.246Z,-5.00
2023-03-16T03:04:20.417Z,-5.20
2023-03-16T03:06:51.887Z,-5.30
2023-03-16T03:09:22.250Z,-5.00
2023-03-16T03:11:55.962Z,-5.20
2023-03-16T03:14:25.749Z,-5.30
2023-03-16T03:16:58.623Z,-5.00
2023-03-16T03:19:28.536Z,-5.00
2023-03-16T03:21:58.814Z,-4.80
2023-03-16T03:24:30.377Z,-4.40
2023-03-16T03:27:01.288Z,-4.50
2023-03-16T03:29:34.524Z,-4.20
2023-03-16T03:32:08.665Z,-4.40
2023-03-16T03:34:38.743Z,-4.10
2023-03-16T03:37:08.981Z,-4.20
2023-03-16T03:39:40.432Z,-4.00
2023-03-16T03:42:11.802Z,-3.20
2023-03-16T03:44:41.820Z,-3.40
2023-03-16T03:47:14.314Z,-3.10
2023-03-16T03:49:44.208Z,-3.20
2023-03-16T03:52:15.373Z,-3.10
2023-03-16T03:54:45.235Z,-3.30
2023-03-16T03:57:19.866Z,-3.10
2023-03-16T03:59:51.273Z,-2.70
2023-03-16T04:02:43.500Z,-2.40
2023-03-16T04:05:27.642Z,-2.10
2023-03-16T04:07:57.929Z,-2.00
2023-03-16T04:10:30.238Z,-1.80
2023-03-16T04:13:01.720Z,-1.80
2023-03-16T04:15:38.629Z,-1.70
2023-03-16T04:18:16.597Z,-1.40
2023-03-16T04:20:46.880Z,-1.40
2023-03-16T04:23:20.524Z,-1.60
2023-03-16T04:25:52.195Z,-1.30
2023-03-16T04:28:26.418Z,-1.40
2023-03-16T04:30:57.383Z,-1.20
2023-03-16T04:33:42.840Z,-1.20
2023-03-16T04:36:13.008Z,-1.30
2023-03-16T04:38:44.200Z,-1.40
2023-03-16T04:41:15.388Z,-1.30
2023-03-16T04:43:53.201Z,-1.10
2023-03-16T04:46:27.304Z,-1.40
2023-03-16T04:49:00.183Z,-1.30
2023-03-16T04:51:32.093Z,-1.10
2023-03-16T04:54:08.266Z,-0.90
2023-03-16T04:56:42.328Z,-1.40
2023-03-16T04:59:41.665Z,-1.10
2023-03-16T05:02:21.238Z,-0.90
2023-03-16T05:04:55.230Z,-1.30
2023-03-16T05:07:25.695Z,-1.40
2023-03-16T05:09:58.007Z,-1.40
2023-03-16T05:12:27.854Z,-1.40
2023-03-16T05:15:03.019Z,-1.30
2023-03-16T05:17:42.338Z,-0.90
2023-03-16T05:20:17.242Z,-1.30
2023-03-16T05:22:54.560Z,-1.30
2023-03-16T05:25:33.971Z,-1.20
2023-03-16T05:28:08.097Z,-1.10
2023-03-16T05:30:53.298Z,-1.10
2023-03-16T05:33:27.928Z,-1.10
2023-03-16T05:36:11.119Z,-1.00
2023-03-16T05:38:43.920Z,-1.00
2023-03-16T05:41:18.780Z,-1.10
2023-03-16T05:44:00.915Z,-1.00
2023-03-16T05:46:40.279Z,-1.20
2023-03-16T05:49:13.017Z,-0.90
2023-03-16T05:51:45.961Z,-1.00
2023-03-16T05:54:16.232Z,-0.90
2023-03-16T05:56:48.542Z,-0.70
2023-03-16T05:59:20.625Z,-0.50
2023-03-16T06:01:56.345Z,-0.60
2023-03-16T06:04:27.107Z,-0.40
2023-03-16T06:07:00.075Z,-0.30
2023-03-16T06:09:31.809Z,-0.20
2023-03-16T06:12:02.181Z,-0.10
2023-03-16T06:14:32.440Z,0.00
2023-03-16T06:17:03.062Z,0.50
2023-03-16T06:19:34.172Z,0.30
2023-03-16T06:22:08.633Z,0.80
2023-03-16T06:24:38.692Z,0.60
2023-03-16T06:27:08.759Z,0.60
2023-03-16T06:29:49.913Z,0.70
2023-03-16T06:32:20.156Z,0.70
2023-03-16T06:34:50.039Z,0.80
2023-03-16T06:37:23.397Z,1.00
2023-03-16T06:39:53.903Z,1.10
2023-03-16T06:42:24.012Z,1.00
2023-03-16T06:44:53.957Z,1.10
2023-03-16T06:47:24.627Z,1.20
2023-03-16T06:49:55.376Z,1.20
2023-03-16T06:52:30.287Z,0.90
2023-03-16T06:55:00.673Z,1.30
2023-03-16T06:57:33.571Z,1.30
2023-03-16T07:00:04.401Z,1.10
2023-03-16T07:02:36.214Z,1.20
2023-03-16T07:05:07.770Z,1.40
2023-03-16T07:07:40.257Z,1.50
2023-03-16T07:10:12.435Z,1.80
2023-03-16T07:12:42.772Z,1.70
2023-03-16T07:15:14.134Z,2.10
2023-03-16T07:17:44.184Z,2.10
2023-03-16T07:20:16.051Z,2.00
2023-03-16T07:22:49.221Z,2.10
2023-03-16T07:25:19.062Z,1.80
2023-03-16T07:27:53.687Z,1.90
2023-03-16T07:30:30.377Z,2.00
2023-03-16T07:33:01.788Z,2.00
2023-03-16T07:35:31.733Z,2.10
2023-03-16T07:38:04.449Z,2.20
2023-03-16T07:40:36.163Z,2.40
2023-03-16T07:43:13.674Z,2.20
2023-03-16T07:45:52.796Z,2.70
2023-03-16T07:48:23.642Z,2.40
2023-03-16T07:51:05.218Z,2.70
2023-03-16T07:53:38.218Z,2.70
2023-03-16T07:56:42.370Z,2.70
2023-03-16T07:59:25.803Z,2.50
2023-03-16T08:01:55.826Z,2.40
2023-03-16T08:04:26.328Z,2.20
2023-03-16T08:07:00.332Z,2.40
2023-03-16T08:09:39.956Z,2.30
2023-03-16T08:12:13.222Z,2.50
2023-03-16T08:14:45.791Z,2.50
2023-03-16T08:17:21.699Z,2.50
2023-03-16T08:19:53.432Z,2.60
2023-03-16T08:22:25.974Z,2.50
2023-03-16T08:24:58.692Z,2.70
2023-03-16T08:27:30.020Z,2.70
2023-03-16T08:30:06.000Z,2.70
2023-03-16T08:32:40.112Z,2.90
2023-03-16T08:35:14.300Z,3.40
2023-03-16T08:37:46.766Z,3.50
2023-03-16T08:40:22.527Z,3.10
2023-03-16T08:42:54.607Z,3.00
2023-03-16T08:45:24.652Z,3.00
2023-03-16T08:47:54.787Z,3.00
2023-03-16T08:50:24.627Z,3.00
2023-03-16T08:52:54.483Z,2.90
2023-03-16T08:55:27.254Z,2.70
2023-03-16T08:57:57.627Z,2.90
2023-03-16T09:00:28.917Z,2.90
2023-03-16T09:03:00.791Z,3.20
2023-03-16T09:05:30.687Z,3.30
2023-03-16T09:08:01.691Z,3.10
2023-03-16T09:10:34.137Z,3.20
2023-03-16T09:13:05.039Z,3.40
2023-03-16T09:15:35.541Z,2.90
2023-03-16T09:18:05.881Z,2.80
2023-03-16T09:20:36.065Z,3.00
2023-03-16T09:23:06.542Z,3.30
2023-03-16T09:25:38.941Z,3.60
2023-03-16T09:28:09.531Z,3.70
2023-03-16T09:30:39.677Z,3.90
2023-03-16T09:33:09.895Z,3.70
2023-03-16T09:35:41.489Z,3.70
2023-03-16T09:38:11.605Z,3.90
2023-03-16T09:40:46.054Z,3.80
2023-03-16T09:43:32.541Z,3.90
2023-03-16T09:46:08.725Z,3.60
2023-03-16T09:48:41.871Z,3.80
2023-03-16T09:51:21.749Z,4.40
2023-03-16T09:53:55.195Z,4.10
2023-03-16T09:56:33.654Z,4.10
2023-03-16T09:59:04.372Z,3.80
2023-03-16T10:01:40.672Z,4.10
2023-03-16T10:04:19.901Z,4.00
2023-03-16T10:06:57.871Z,4.30
2023-03-16T10:09:35.517Z,4.50
2023-03-16T10:12:10.398Z,4.20
2023-03-16T10:14:48.101Z,4.10
2023-03-16T10:17:21.949Z,4.80
2023-03-16T10:19:58.441Z,4.50
2023-03-16T10:22:30.205Z,4.70
2023-03-16T10:25:12.826Z,4.90
2023-03-16T10:27:48.302Z,4.90
2023-03-16T10:30:24.813Z,5.00
2023-03-16T10:32:55.505Z,5.10
2023-03-16T10:35:46.056Z,4.30
2023-03-16T10:38:30.825Z,4.20
2023-03-16T10:41:00.848Z,4.20
2023-03-16T10:43:34.383Z,4.10
2023-03-16T10:46:04.961Z,4.10
2023-03-16T10:48:36.099Z,4.10
2023-03-16T10:51:12.041Z,4.70
2023-03-16T10:53:45.363Z,4.40
2023-03-16T10:56:22.694Z,4.60
2023-03-16T10:58:56.551Z,4.60
2023-03-16T11:01:29.554Z,5.10
2023-03-16T11:04:01.815Z,4.90
2023-03-16T11:06:33.608Z,4.80
2023-03-16T11:09:08.954Z,5.00
2023-03-16T11:11:39.812Z,5.00
2023-03-16T11:14:16.821Z,4.80
2023-03-16T11:16:51.111Z,4.90
2023-03-16T11:19:24.207Z,4.90
2023-03-16T11:21:59.973Z,5.00
2023-03-16T11:24:36.139Z,5.40
2023-03-16T11:27:12.788Z,5.30
2023-03-16T11:29:57.020Z,5.30
2023-03-16T11:32:33.382Z,5.20
2023-03-16T11:35:04.692Z,5.30
2023-03-16T11:37:46.296Z,5.40
2023-03-16T11:40:26.971Z,5.20
2023-03-16T11:43:05.515Z,5.70
2023-03-16T11:45:44.160Z,5.80
2023-03-16T11:48:31.770Z,5.60
2023-03-16T11:51:06.945Z,6.10
2023-03-16T11:53:51.199Z,5.70
2023-03-16T11:56:32.031Z,5.70
2023-03-16T11:59:35.353Z,5.80
2023-03-16T12:02:34.858Z,5.80
2023-03-16T12:05:45.130Z,5.80
2023-03-16T12:08:27.997Z,5.70
2023-03-16T12:11:02.635Z,5.70
2023-03-16T12:13:45.101Z,5.40
2023-03-16T12:16:21.199Z,5.60
2023-03-16T12:19:00.392Z,5.60
2023-03-16T12:21:34.495Z,5.60
2023-03-16T12:24:07.135Z,5.70
2023-03-16T12:26:42.228Z,5.50
2023-03-16T12:29:23.446Z,5.70
2023-03-16T12:31:58.156Z,6.00
2023-03-16T12:34:39.665Z,5.90
2023-03-16T12:37:30.305Z,6.00
2023-03-16T12:40:17.716Z,6.00
2023-03-16T12:43:01.470Z,5.90
2023-03-16T12:45:42.110Z,5.80
2023-03-16T12:48:20.309Z,6.10
2023-03-16T12:51:01.356Z,6.20
2023-03-16T12:53:42.528Z,6.10
2023-03-16T12:56:15.263Z,6.00
2023-03-16T12:58:48.772Z,6.00
2023-03-16T13:01:21.199Z,6.10
2023-03-16T13:03:53.486Z,6.00
2023-03-16T13:06:27.268Z,5.60
2023-03-16T13:09:01.589Z,5.90
2023-03-16T13:11:43.784Z,6.20
2023-03-16T13:14:20.077Z,5.40
2023-03-16T13:16:50.862Z,5.40
2023-03-16T13:19:29.001Z,5.40
2023-03-16T13:22:22.120Z,5.30
2023-03-16T13:24:57.685Z,5.30
2023-03-16T13:27:31.151Z,5.60
2023-03-16T13:30:03.560Z,5.60
2023-03-16T13:32:36.653Z,5.70
2023-03-16T13:35:11.518Z,5.70
2023-03-16T13:37:46.185Z,5.70
2023-03-16T13:40:23.955Z,5.60
2023-03-16T13:42:56.329Z,5.60
2023-03-16T13:45:31.760Z,5.70
2023-03-16T13:48:03.450Z,5.70
2023-03-16T13:50:36.221Z,5.80
2023-03-16T13:53:17.342Z,5.80
2023-03-16T13:55:50.297Z,5.70
2023-03-16T13:58:26.401Z,5.70
2023-03-16T14:00:59.599Z,5.60
2023-03-16T14:03:36.351Z,5.50
2023-03-16T14:06:07.389Z,5.50
2023-03-16T14:08:40.465Z,5.30
2023-03-16T14:11:13.213Z,5.40
2023-03-16T14:13:44.080Z,5.50
2023-03-16T14:16:18.767Z,5.50
2023-03-16T14:18:50.251Z,5.70
2023-03-16T14:21:23.847Z,5.70
2023-03-16T14:24:02.096Z,5.50
2023-03-16T14:26:42.812Z,5.50
2023-03-16T14:29:21.752Z,5.80
2023-03-16T14:31:51.717Z,5.70
2023-03-16T14:34:31.980Z,5.80
2023-03-16T14:37:12.413Z,5.60
2023-03-16T14:39:45.378Z,5.50
2023-03-16T14:42:21.620Z,5.70
2023-03-16T14:44:53.058Z,5.70
2023-03-16T14:47:26.772Z,5.40
2023-03-16T14:49:59.164Z,5.50
2023-03-16T14:52:31.751Z,5.20
2023-03-16T14:55:13.064Z,5.30
2023-03-16T14:57:45.140Z,5.30
2023-03-16T15:00:18.827Z,5.40
2023-03-16T15:02:59.363Z,5.20
2023-03-16T15:05:37.058Z,5.30
2023-03-16T15:08:10.830Z,5.40
2023-03-16T15:10:45.184Z,5.60
2023-03-16T15:13:34.609Z,5.40
2023-03-16T15:16:05.835Z,5.50
2023-03-16T15:18:37.624Z,5.70
2023-03-16T15:21:14.433Z,5.70
2023-03-16T15:23:45.823Z,5.50
2023-03-16T15:26:24.921Z,5.80
2023-03-16T15:28:55.401Z,5.50
2023-03-16T15:31:26.840Z,5.80
2023-03-16T15:33:56.698Z,5.50
2023-03-16T15:36:26.724Z,5.40
2023-03-16T15:38:57.531Z,5.30
2023-03-16T15:41:41.338Z,5.70
2023-03-16T15:44:17.669Z,5.40
2023-03-16T15:46:47.967Z,5.40
2023-03-16T15:49:18.507Z,5.20
2023-03-16T15:51:48.409Z,5.10
2023-03-16T15:54:18.694Z,5.00
2023-03-16T15:56:54.591Z,4.90
2023-03-16T15:59:29.163Z,5.10
2023-03-16T16:01:59.024Z,4.90
2023-03-16T16:04:30.016Z,5.00
2023-03-16T16:07:02.203Z,4.90
2023-03-16T16:09:35.381Z,5.10
2023-03-16T16:12:08.424Z,5.10
2023-03-16T16:14:38.555Z,5.10
2023-03-16T16:17:13.586Z,4.80
2023-03-16T16:19:44.153Z,5.00
2023-03-16T16:22:15.321Z,4.90
2023-03-16T16:24:45.608Z,4.60
2023-03-16T16:27:18.363Z,4.60
2023-03-16T16:29:48.405Z,4.80
2023-03-16T16:32:25.791Z,4.50
2023-03-16T16:35:04.240Z,4.70
2023-03-16T16:37:35.136Z,4.60
2023-03-16T16:40:06.456Z,4.50
2023-03-16T16:42:40.187Z,4.40
2023-03-16T16:45:18.240Z,4.40
2023-03-16T16:47:50.394Z,4.60
2023-03-16T16:50:23.558Z,4.70
2023-03-16T16:52:54.626Z,4.40
2023-03-16T16:55:25.413Z,4.40
2023-03-16T16:57:58.175Z,4.30
2023-03-16T17:00:29.452Z,4.50
2023-03-16T17:02:59.241Z,4.10
2023-03-16T17:05:32.747Z,4.30
2023-03-16T17:08:04.320Z,4.30
2023-03-16T17:10:35.043Z,4.20
2023-03-16T17:13:08.456Z,4.40
2023-03-16T17:15:39.450Z,4.30
2023-03-16T17:18:14.142Z,4.10
2023-03-16T17:20:45.013Z,4.40
2023-03-16T17:23:29.753Z,4.10
2023-03-16T17:26:01.993Z,4.10
2023-03-16T17:28:41.642Z,4.10
2023-03-16T17:31:13.427Z,4.20
2023-03-16T17:33:43.307Z,4.10
2023-03-16T17:36:16.692Z,4.00
2023-03-16T17:38:46.761Z,4.10
2023-03-16T17:41:24.769Z,3.90
2023-03-16T17:43:59.486Z,4.00
2023-03-16T17:46:32.900Z,3.80
2023-03-16T17:49:02.697Z,3.80
2023-03-16T17:51:33.442Z,3.80
2023-03-16T17:54:04.260Z,3.90
2023-03-16T17:56:37.233Z,3.80
2023-03-16T17:59:16.713Z,3.80
2023-03-16T18:01:48.414Z,3.80
2023-03-16T18:04:23.041Z,4.20
2023-03-16T18:06:54.400Z,4.10
2023-03-16T18:09:24.185Z,3.90
2023-03-16T18:11:54.707Z,4.00
2023-03-16T18:14:37.226Z,4.10
2023-03-16T18:17:18.181Z,4.00
2023-03-16T18:19:48.898Z,3.80
2023-03-16T18:22:22.180Z,3.70
2023-03-16T18:24:53.325Z,3.80
2023-03-16T18:27:24.816Z,3.80
2023-03-16T18:29:57.142Z,3.80
2023-03-16T18:32:29.455Z,3.80
2023-03-16T18:35:02.900Z,3.80
2023-03-16T18:37:34.259Z,3.80
2023-03-16T18:40:04.133Z,3.80
2023-03-16T18:42:34.059Z,3.80
2023-03-16T18:45:07.205Z,3.80
2023-03-16T18:47:37.069Z,3.80
2023-03-16T18:50:07.765Z,3.80
2023-03-16T18:52:39.446Z,3.80
2023-03-16T18:55:18.705Z,3.70
2023-03-16T18:57:51.624Z,3.70
2023-03-16T19:00:27.247Z,3.90
2023-03-16T19:02:59.078Z,4.00
2023-03-16T19:05:35.862Z,4.10
2023-03-16T19:08:07.596Z,3.80
2023-03-16T19:10:42.057Z,4.10
2023-03-16T19:13:19.286Z,3.70
2023-03-16T19:15:53.247Z,3.50
2023-03-16T19:18:24.891Z,3.90
2023-03-16T19:20:57.368Z,3.70
2023-03-16T19:23:30.969Z,3.70
2023-03-16T19:26:01.637Z,3.70
2023-03-16T19:28:34.827Z,3.70
2023-03-16T19:31:16.921Z,3.80
2023-03-16T19:33:47.966Z,3.80
2023-03-16T19:36:21.957Z,3.80
2023-03-16T19:38:52.981Z,3.70
2023-03-16T19:41:27.260Z,3.80
2023-03-16T19:43:58.991Z,3.70
2023-03-16T19:46:34.069Z,3.70
2023-03-16T19:49:03.951Z,3.50
2023-03-16T19:51:33.750Z,3.70
2023-03-16T19:54:03.539Z,3.70
2023-03-16T19:56:33.553Z,3.70
2023-03-16T19:59:03.357Z,4.00
2023-03-16T20:01:36.834Z,3.80
2023-03-16T20:04:07.747Z,3.90
2023-03-16T20:06:37.547Z,4.00
2023-03-16T20:09:08.067Z,3.80
2023-03-16T20:11:38.201Z,3.80
2023-03-16T20:14:08.610Z,3.80
2023-03-16T20:16:41.640Z,3.80
2023-03-16T20:19:16.236Z,3.80
2023-03-16T20:21:46.715Z,3.80
2023-03-16T20:24:18.192Z,4.10
2023-03-16T20:26:52.168Z,3.90
2023-03-16T20:29:29.428Z,4.10
2023-03-16T20:32:03.673Z,4.00
2023-03-16T20:34:34.845Z,3.90
2023-03-16T20:37:04.769Z,4.10
2023-03-16T20:39:38.548Z,3.90
2023-03-16T20:42:08.451Z,4.20
2023-03-16T20:44:38.855Z,3.90
2023-03-16T20:47:15.417Z,4.10
2023-03-16T20:49:45.210Z,3.90
2023-03-16T20:52:19.109Z,3.90
2023-03-16T20:54:48.893Z,3.90
2023-03-16T20:57:25.949Z,3.90
2023-03-16T20:59:57.129Z,3.90
2023-03-16T21:02:38.869Z,4.10
2023-03-16T21:05:16.830Z,4.20
2023-03-16T21:07:47.141Z,4.30
2023-03-16T21:10:21.779Z,4.20
2023-03-16T21:12:55.075Z,3.90
2023-03-16T21:15:30.592Z,4.00
2023-03-16T21:18:03.635Z,4.20
2023-03-16T21:20:38.158Z,3.70
2023-03-16T21:23:14.326Z,3.80
2023-03-16T21:25:49.261Z,3.80
2023-03-16T21:28:20.053Z,3.90
2023-03-16T21:30:52.362Z,3.80
2023-03-16T21:33:27.376Z,3.70
2023-03-16T21:36:00.208Z,3.80
2023-03-16T21:38:32.080Z,3.80
2023-03-16T21:41:02.634Z,4.00
2023-03-16T21:43:32.810Z,4.00
2023-03-16T21:46:02.605Z,4.10
2023-03-16T21:48:38.012Z,4.20
2023-03-16T21:51:16.176Z,3.90
2023-03-16T21:53:46.790Z,3.80
2023-03-16T21:56:18.265Z,3.80
2023-03-16T21:58:49.124Z,3.80
2023-03-16T22:01:25.642Z,3.80
2023-03-16T22:03:57.703Z,3.80
2023-03-16T22:06:30.910Z,3.70
2023-03-16T22:09:02.921Z,3.70
2023-03-16T22:11:33.852Z,3.70
2023-03-16T22:14:03.682Z,3.70
2023-03-16T22:16:36.582Z,3.70
2023-03-16T22:19:08.210Z,3.80
2023-03-16T22:21:43.310Z,3.80
2023-03-16T22:24:19.185Z,3.80
2023-03-16T22:26:50.541Z,3.90
2023-03-16T22:29:24.277Z,4.00
2023-03-16T22:31:58.734Z,4.00
2023-03-16T22:34:32.603Z,4.10
2023-03-16T22:37:06.710Z,4.10
2023-03-16T22:39:39.701Z,4.20
2023-03-16T22:42:27.462Z,4.20
2023-03-16T22:44:57.662Z,4.30
2023-03-16T22:47:32.342Z,4.20
2023-03-16T22:50:02.334Z,4.10
2023-03-16T22:52:37.875Z,4.10
2023-03-16T22:55:09.967Z,4.10
2023-03-16T22:57:40.188Z,4.30
2023-03-16T23:00:14.266Z,4.40
2023-03-16T23:02:45.271Z,4.10
2023-03-16T23:05:22.996Z,4.30
2023-03-16T23:07:55.853Z,4.80
2023-03-16T23:10:31.323Z,4.20
2023-03-16T23:13:02.765Z,4.80
2023-03-16T23:15:33.463Z,4.80
2023-03-16T23:18:03.228Z,4.40
2023-03-16T23:20:35.869Z,4.80
2023-03-16T23:23:08.254Z,4.60
2023-03-16T23:25:38.467Z,4.50
2023-03-16T23:28:09.424Z,4.50
2023-03-16T23:30:39.274Z,4.80
2023-03-16T23:33:09.187Z,4.70
2023-03-16T23:35:39.504Z,4.80
2023-03-16T23:38:14.029Z,5.10
2023-03-16T23:40:44.049Z,4.80
2023-03-16T23:43:14.049Z,4.80
2023-03-16T23:45:45.700Z,4.80
2023-03-16T23:48:20.104Z,4.80
2023-03-16T23:50:52.207Z,4.80
2023-03-16T23:53:25.675Z,4.60
2023-03-16T23:55:55.445Z,4.50
2023-03-16T23:58:25.802Z,4.50
